createdAt,value
2019-02-19T07:39:14.575Z,95362.47
2019-02-19T07:41:47.376Z,95355.76
2019-02-19T07:44:20.414Z,95358.50
2019-02-19T07:46:53.213Z,95357.91
2019-02-19T07:49:26.032Z,95355.75
2019-02-19T07:51:59.029Z,95359.25
2019-02-19T07:54:32.932Z,95354.21
2019-02-19T07:57:05.801Z,95350.86
2019-02-19T07:59:38.726Z,95346.31
2019-02-19T08:02:11.526Z,95347.95
2019-02-19T08:04:44.462Z,95346.59
2019-02-19T08:07:17.575Z,95341.77
2019-02-19T08:09:50.473Z,95339.66
2019-02-19T08:12:23.382Z,95340.72
2019-02-19T08:14:56.134Z,95341.03
2019-02-19T08:17:33.408Z,95341.15
2019-02-19T08:20:03.574Z,95333.11
2019-02-19T08:22:37.792Z,95331.19
2019-02-19T08:25:10.765Z,95334.11
2019-02-19T08:27:43.582Z,95327.25
2019-02-19T08:30:16.577Z,95335.98
2019-02-19T08:32:49.829Z,95331.94
2019-02-19T08:35:22.658Z,95329.94
2019-02-19T08:37:55.627Z,95327.13
2019-02-19T08:40:28.411Z,95328.27
2019-02-19T08:43:01.307Z,95329.09
2019-02-19T08:45:34.566Z,95325.80
2019-02-19T08:48:07.655Z,95325.61
2019-02-19T08:50:40.493Z,95326.69
2019-02-19T08:53:13.208Z,95334.83
2019-02-19T08:55:46.185Z,95331.97
2019-02-19T08:58:19.152Z,95325.48
2019-02-19T09:00:52.234Z,95328.37
2019-02-19T09:03:25.530Z,95324.23
2019-02-19T09:05:58.606Z,95325.97
2019-02-19T09:08:31.721Z,95326.56
2019-02-19T09:11:04.908Z,95323.27
2019-02-19T09:13:37.839Z,95321.33
2019-02-19T09:16:10.863Z,95318.87
2019-02-19T09:18:43.977Z,95321.34
2019-02-19T09:21:16.918Z,95314.31
2019-02-19T09:23:49.886Z,95309.83
2019-02-19T09:26:23.092Z,95313.86
2019-02-19T09:28:56.083Z,95305.95
2019-02-19T09:31:30.567Z,95299.50
2019-02-19T09:34:03.667Z,95305.06
2019-02-19T09:36:36.729Z,95302.75
2019-02-19T09:39:10.136Z,95297.85
2019-02-19T09:41:43.175Z,95297.81
2019-02-19T09:44:16.166Z,95285.31
2019-02-19T09:46:49.599Z,95283.26
2019-02-19T09:49:22.764Z,95284.09
2019-02-19T09:51:55.924Z,95280.87
2019-02-19T09:54:29.377Z,95279.07
2019-02-19T09:57:02.574Z,95276.61
2019-02-19T09:59:35.594Z,95272.31
2019-02-19T10:02:09.054Z,95266.34
2019-02-19T10:04:42.010Z,95261.03
2019-02-19T10:07:14.969Z,95251.05
2019-02-19T10:09:48.092Z,95245.34
2019-02-19T10:12:20.998Z,95244.31
2019-02-19T10:14:53.921Z,95238.69
2019-02-19T10:17:26.725Z,95234.16
2019-02-19T10:19:59.854Z,95225.75
2019-02-19T10:22:32.943Z,95219.63
2019-02-19T10:25:06.629Z,95220.45
2019-02-19T10:27:39.495Z,95220.41
2019-02-19T10:30:15.208Z,95219.77
2019-02-19T10:32:48.047Z,95215.25
2019-02-19T10:35:21.551Z,95207.94
2019-02-19T10:37:54.488Z,95204.18
2019-02-19T10:40:27.589Z,95198.34
2019-02-19T10:43:00.683Z,95192.97
2019-02-19T10:45:33.833Z,95190.86
2019-02-19T10:48:06.782Z,95184.59
2019-02-19T10:50:40.517Z,95177.29
2019-02-19T10:53:13.393Z,95172.86
2019-02-19T10:55:46.377Z,95164.64
2019-02-19T10:58:22.922Z,95165.23
2019-02-19T11:00:55.525Z,95165.88
2019-02-19T11:03:28.563Z,95156.41
2019-02-19T11:06:01.702Z,95148.98
2019-02-19T11:08:35.056Z,95147.92
2019-02-19T11:11:08.570Z,95141.13
2019-02-19T11:13:41.541Z,95137.58
2019-02-19T11:16:14.532Z,95137.91
2019-02-19T11:18:47.792Z,95137.04
2019-02-19T11:21:20.959Z,95128.94
2019-02-19T11:23:54.081Z,95126.26
2019-02-19T11:26:27.207Z,95117.76
2019-02-19T11:29:00.316Z,95118.09
2019-02-19T11:31:33.712Z,95115.48
2019-02-19T11:34:07.044Z,95110.95
2019-02-19T11:36:40.166Z,95100.95
2019-02-19T11:39:15.107Z,95103.92
2019-02-19T11:41:48.201Z,95101.27
2019-02-19T11:44:21.403Z,95093.22
2019-02-19T11:46:54.276Z,95095.34
2019-02-19T11:49:27.757Z,95087.02
2019-02-19T11:52:00.927Z,95080.64
2019-02-19T11:54:34.151Z,95082.94
2019-02-19T11:57:07.388Z,95080.50
2019-02-19T11:59:40.776Z,95079.22
2019-02-19T12:02:16.693Z,95076.95
2019-02-19T12:04:49.734Z,95069.97
2019-02-19T12:07:24.134Z,95062.56
2019-02-19T12:09:57.186Z,95065.78
2019-02-19T12:12:30.144Z,95061.16
2019-02-19T12:15:03.268Z,95051.59
2019-02-19T12:17:36.343Z,95053.91
2019-02-19T12:20:10.031Z,95049.47
2019-02-19T12:22:43.215Z,95042.66
2019-02-19T12:25:16.533Z,95044.76
2019-02-19T12:27:49.605Z,95041.42
2019-02-19T12:30:23.031Z,95036.94
2019-02-19T12:32:56.306Z,95028.80
2019-02-19T12:35:29.320Z,95025.25
2019-02-19T12:38:02.760Z,95015.72
2019-02-19T12:40:37.381Z,95017.33
2019-02-19T12:43:12.186Z,95010.63
2019-02-19T12:45:45.449Z,95008.45
2019-02-19T12:48:18.687Z,95010.28
2019-02-19T12:50:52.386Z,95003.98
2019-02-19T12:53:25.687Z,94998.92
2019-02-19T12:55:58.941Z,94999.25
2019-02-19T12:58:31.973Z,94994.13
2019-02-19T13:01:06.379Z,94990.77
2019-02-19T13:03:42.941Z,94989.50
2019-02-19T13:06:19.687Z,94988.44
2019-02-19T13:08:53.038Z,94986.86
2019-02-19T13:11:26.535Z,94990.77
2019-02-19T13:14:00.065Z,94984.75
2019-02-19T13:16:34.597Z,94981.22
2019-02-19T13:19:08.268Z,94978.37
2019-02-19T13:21:41.774Z,94974.82
2019-02-19T13:24:14.993Z,94978.54
2019-02-19T13:26:50.294Z,94971.61
2019-02-19T13:29:23.753Z,94967.27
2019-02-19T13:31:56.903Z,94972.13
2019-02-19T13:34:30.356Z,94970.13
2019-02-19T13:37:03.603Z,94964.36
2019-02-19T13:39:36.875Z,94963.31
2019-02-19T13:42:10.017Z,94967.61
2019-02-19T13:44:43.441Z,94970.65
2019-02-19T13:47:16.694Z,94965.96
2019-02-19T13:49:49.910Z,94961.38
2019-02-19T13:52:53.964Z,94955.33
2019-02-19T13:55:32.323Z,94960.03
2019-02-19T13:58:05.681Z,94956.56
2019-02-19T14:00:41.042Z,94948.97
2019-02-19T14:03:14.141Z,94950.89
2019-02-19T14:05:47.385Z,94947.80
2019-02-19T14:08:20.418Z,94947.90
2019-02-19T14:10:53.454Z,94946.05
2019-02-19T14:13:27.298Z,94942.45
2019-02-19T14:16:17.389Z,94939.68
2019-02-19T14:19:04.562Z,94939.05
2019-02-19T14:22:02.871Z,94948.23
2019-02-19T14:24:47.769Z,94947.72
2019-02-19T14:27:39.779Z,94943.65
2019-02-19T14:30:36.085Z,94939.06
2019-02-19T14:33:30.827Z,94940.31
2019-02-19T14:36:30.035Z,94932.91
2019-02-19T14:39:34.310Z,94933.75
2019-02-19T14:42:25.320Z,94932.45
2019-02-19T14:45:23.332Z,94932.63
2019-02-19T14:48:15.613Z,94931.64
2019-02-19T14:51:17.845Z,94932.17
2019-02-19T14:54:03.012Z,94928.98
2019-02-19T14:56:54.835Z,94925.59
2019-02-19T14:59:49.883Z,94927.48
2019-02-19T15:02:40.540Z,94924.75
2019-02-19T15:05:29.736Z,94922.79
2019-02-19T15:08:21.388Z,94925.09
2019-02-19T15:11:07.481Z,94918.41
2019-02-19T15:14:05.703Z,94920.23
2019-02-19T15:17:03.949Z,94924.29
2019-02-19T15:19:55.346Z,94921.05
2019-02-19T15:22:48.076Z,94917.63
2019-02-19T15:25:39.083Z,94919.59
2019-02-19T15:28:36.902Z,94919.88
2019-02-19T15:31:27.740Z,94924.95
2019-02-19T15:34:19.333Z,94928.52
2019-02-19T15:37:17.896Z,94921.20
2019-02-19T15:40:19.484Z,94922.75
2019-02-19T15:43:16.573Z,94920.50
2019-02-19T15:46:17.841Z,94916.27
2019-02-19T15:49:18.238Z,94914.63
2019-02-19T15:52:12.919Z,94921.95
2019-02-19T15:55:23.700Z,94921.08
2019-02-19T15:58:31.213Z,94922.33
2019-02-19T16:01:35.249Z,94922.59
2019-02-19T16:04:23.019Z,94928.12
2019-02-19T16:07:14.630Z,94927.52
2019-02-19T16:10:04.411Z,94923.21
2019-02-19T16:13:02.824Z,94923.70
2019-02-19T16:16:03.854Z,94930.31
2019-02-19T16:19:05.578Z,94929.62
2019-02-19T16:21:53.071Z,94934.69
2019-02-19T16:24:34.058Z,94933.97
2019-02-19T16:27:26.271Z,94937.59
2019-02-19T16:30:18.029Z,94942.64
2019-02-19T16:33:19.541Z,94939.16
2019-02-19T16:36:10.587Z,94950.00
2019-02-19T16:39:05.936Z,94954.08
2019-02-19T16:41:48.264Z,94958.23
2019-02-19T16:44:37.412Z,94963.28
2019-02-19T16:47:29.525Z,94961.04
2019-02-19T16:50:17.348Z,94956.42
2019-02-19T16:53:08.253Z,94963.31
2019-02-19T16:55:51.436Z,94963.92
2019-02-19T16:58:46.819Z,94967.41
2019-02-19T17:01:29.732Z,94967.56
2019-02-19T17:04:17.066Z,94967.14
2019-02-19T17:07:05.437Z,94969.84
2019-02-19T17:10:06.702Z,94968.66
2019-02-19T17:13:04.651Z,94974.41
2019-02-19T17:15:59.533Z,94968.84
2019-02-19T17:18:49.950Z,94969.39
2019-02-19T17:21:45.385Z,94967.20
2019-02-19T17:24:49.524Z,94972.48
2019-02-19T17:27:38.480Z,94981.53
2019-02-19T17:30:49.479Z,94980.86
2019-02-19T17:33:42.919Z,94983.86
2019-02-19T17:36:49.956Z,94976.68
2019-02-19T17:39:39.914Z,94988.05
2019-02-19T17:42:32.362Z,94986.86
2019-02-19T17:45:34.002Z,94991.95
2019-02-19T17:48:25.159Z,94985.89
2019-02-19T17:51:23.435Z,94984.07
2019-02-19T17:54:13.347Z,94976.70
2019-02-19T17:56:55.988Z,94979.03
2019-02-19T17:59:51.627Z,94984.48
2019-02-19T18:02:44.933Z,94984.45
2019-02-19T18:05:42.771Z,94980.78
2019-02-19T18:08:33.102Z,94983.31
2019-02-19T18:11:26.434Z,94990.14
2019-02-19T18:14:28.578Z,94988.25
2019-02-19T18:17:39.419Z,94991.55
2019-02-19T18:20:13.093Z,94989.09
2019-02-19T18:22:48.093Z,95007.48
2019-02-19T18:25:21.552Z,95003.06
2019-02-19T18:27:54.652Z,95011.20
2019-02-19T18:30:27.911Z,95003.24
2019-02-19T18:33:00.868Z,95003.24
2019-02-19T18:35:34.287Z,95007.54
2019-02-19T18:38:07.327Z,95011.27
2019-02-19T18:40:40.537Z,95004.21
2019-02-19T18:43:13.721Z,95009.16
2019-02-19T18:45:46.774Z,95012.99
2019-02-19T18:48:20.352Z,95013.82
2019-02-19T18:50:58.435Z,95010.83
2019-02-19T18:53:28.826Z,95016.53
2019-02-19T18:56:01.924Z,95014.09
2019-02-19T18:58:35.173Z,95014.02
2019-02-19T19:01:08.803Z,95017.61
2019-02-19T19:03:42.199Z,95014.95
2019-02-19T19:06:15.413Z,95015.53
2019-02-19T19:08:48.701Z,95020.31
2019-02-19T19:11:23.713Z,95025.25
2019-02-19T19:13:56.709Z,95028.33
2019-02-19T19:16:30.360Z,95025.85
2019-02-19T19:19:03.733Z,95030.10
2019-02-19T19:21:37.209Z,95028.32
2019-02-19T19:24:10.872Z,95033.02
2019-02-19T19:26:44.711Z,95026.95
2019-02-19T19:29:17.861Z,95026.86
2019-02-19T19:31:51.494Z,95030.47
2019-02-19T19:34:26.361Z,95034.25
2019-02-19T19:37:00.580Z,95035.78
2019-02-19T19:39:34.693Z,95038.39
2019-02-19T19:42:08.489Z,95038.61
2019-02-19T19:44:41.623Z,95045.63
2019-02-19T19:47:15.360Z,95061.19
2019-02-19T19:49:50.282Z,95055.40
2019-02-19T19:52:25.625Z,95060.53
2019-02-19T19:54:59.673Z,95066.45
2019-02-19T19:57:33.635Z,95064.03
2019-02-19T20:00:07.772Z,95064.80
2019-02-19T20:02:41.606Z,95068.56
2019-02-19T20:05:32.251Z,95060.84
2019-02-19T20:08:05.948Z,95067.47
2019-02-19T20:10:39.880Z,95057.59
2019-02-19T20:13:14.878Z,95060.76
2019-02-19T20:15:48.477Z,95061.87
2019-02-19T20:18:21.687Z,95059.87
2019-02-19T20:20:55.055Z,95070.06
2019-02-19T20:23:28.367Z,95068.36
2019-02-19T20:26:01.785Z,95066.17
2019-02-19T20:28:34.690Z,95062.22
2019-02-19T20:31:09.284Z,95064.11
2019-02-19T20:33:42.515Z,95068.11
2019-02-19T20:36:15.682Z,95065.59
2019-02-19T20:38:48.679Z,95068.05
2019-02-19T20:41:21.748Z,95066.45
2019-02-19T20:43:57.830Z,95066.66
2019-02-19T20:46:31.098Z,95062.20
2019-02-19T20:49:04.445Z,95064.36
2019-02-19T20:51:37.418Z,95066.17
2019-02-19T20:54:13.910Z,95063.47
2019-02-19T20:56:47.139Z,95068.30
2019-02-19T20:59:20.053Z,95069.98
2019-02-19T21:01:53.432Z,95065.14
2019-02-19T21:04:26.654Z,95070.03
2019-02-19T21:06:59.929Z,95064.25
2019-02-19T21:09:43.108Z,95070.58
2019-02-19T21:12:07.842Z,95069.34
2019-02-19T21:14:41.024Z,95071.40
2019-02-19T21:17:14.320Z,95070.41
2019-02-19T21:19:47.458Z,95067.70
2019-02-19T21:22:20.569Z,95075.91
2019-02-19T21:24:53.453Z,95069.69
2019-02-19T21:27:26.827Z,95064.20
2019-02-19T21:29:59.856Z,95067.02
2019-02-19T21:32:32.990Z,95068.98
2019-02-19T21:35:06.086Z,95064.06
2019-02-19T21:37:39.193Z,95068.88
2019-02-19T21:40:12.641Z,95062.28
2019-02-19T21:42:45.711Z,95059.83
2019-02-19T21:45:18.876Z,95063.27
2019-02-19T21:47:52.301Z,95063.48
2019-02-19T21:50:25.660Z,95068.02
2019-02-19T21:52:58.861Z,95065.54
2019-02-19T21:55:32.518Z,95066.36
2019-02-19T21:58:05.596Z,95066.44
2019-02-19T22:00:38.703Z,95064.70
2019-02-19T22:03:11.855Z,95069.25
2019-02-19T22:05:44.941Z,95073.78
2019-02-19T22:08:18.417Z,95073.64
2019-02-19T22:10:51.592Z,95071.47
2019-02-19T22:13:25.221Z,95068.58
2019-02-19T22:15:58.686Z,95065.98
2019-02-19T22:18:31.850Z,95067.42
2019-02-19T22:21:10.708Z,95071.81
2019-02-19T22:23:43.711Z,95075.88
2019-02-19T22:26:16.755Z,95071.01
2019-02-19T22:28:49.965Z,95059.88
2019-02-19T22:31:23.499Z,95060.87
2019-02-19T22:33:57.059Z,95064.23
2019-02-19T22:36:30.514Z,95063.34
2019-02-19T22:39:06.287Z,95066.89
2019-02-19T22:41:39.528Z,95068.70
2019-02-19T22:44:12.875Z,95070.88
2019-02-19T22:46:45.947Z,95068.46
2019-02-19T22:49:19.191Z,95074.24
2019-02-19T22:51:52.369Z,95072.45
2019-02-19T22:54:49.002Z,95068.39
2019-02-19T22:57:22.603Z,95067.95
2019-02-19T22:59:55.761Z,95067.70
2019-02-19T23:02:31.296Z,95068.81
2019-02-19T23:05:04.802Z,95068.78
2019-02-19T23:07:38.225Z,95067.41
2019-02-19T23:10:11.237Z,95076.31
2019-02-19T23:12:44.492Z,95066.68
2019-02-19T23:15:18.398Z,95076.74
2019-02-19T23:17:51.765Z,95074.34
2019-02-19T23:20:24.823Z,95079.83
2019-02-19T23:22:58.194Z,95080.72
2019-02-19T23:25:31.421Z,95077.81
2019-02-19T23:28:04.512Z,95076.52
2019-02-19T23:30:37.835Z,95080.77
2019-02-19T23:33:11.596Z,95081.42
2019-02-19T23:35:49.693Z,95077.69
2019-02-19T23:38:23.309Z,95076.56
2019-02-19T23:40:56.891Z,95084.22
2019-02-19T23:43:30.753Z,95081.05
2019-02-19T23:46:04.652Z,95085.59
2019-02-19T23:48:38.452Z,95094.89
2019-02-19T23:51:11.809Z,95090.67
2019-02-19T23:53:45.002Z,95089.86
2019-02-19T23:56:18.313Z,95091.56
2019-02-19T23:58:51.524Z,95093.50
